createdAt,value
2023-11-15T00:00:46.609Z,89.13
2023-11-15T00:03:36.048Z,88.74
2023-11-15T00:06:25.573Z,88.61
2023-11-15T00:09:15.019Z,89.03
2023-11-15T00:12:05.056Z,88.80
2023-11-15T00:14:56.099Z,88.63
2023-11-15T00:17:45.782Z,88.05
2023-11-15T00:20:35.575Z,88.16
2023-11-15T00:23:27.723Z,87.52
2023-11-15T00:26:17.090Z,87.55
2023-11-15T00:29:16.066Z,87.29
2023-11-15T00:32:07.916Z,87.09
2023-11-15T00:34:57.275Z,87.08
2023-11-15T00:37:47.207Z,87.22
2023-11-15T00:40:36.621Z,86.88
2023-11-15T00:43:26.150Z,87.57
2023-11-15T00:46:16.846Z,87.63
2023-11-15T00:49:08.151Z,87.22
2023-11-15T00:51:58.004Z,88.14
2023-11-15T00:54:47.363Z,87.83
2023-11-15T00:57:37.688Z,87.93
2023-11-15T01:00:28.264Z,87.86
2023-11-15T01:03:27.516Z,87.54
2023-11-15T01:06:18.430Z,87.54
2023-11-15T01:09:09.488Z,87.30
2023-11-15T01:11:59.007Z,87.14
2023-11-15T01:14:48.419Z,87.19
2023-11-15T01:17:38.030Z,86.54
2023-11-15T01:20:27.502Z,86.59
2023-11-15T01:23:18.482Z,86.92
2023-11-15T01:26:08.437Z,88.24
2023-11-15T01:28:59.098Z,87.50
2023-11-15T01:31:48.461Z,87.90
2023-11-15T01:34:37.821Z,87.88
2023-11-15T01:37:27.140Z,87.84
2023-11-15T01:40:21.151Z,87.82
2023-11-15T01:43:12.506Z,87.33
2023-11-15T01:46:02.247Z,87.58
2023-11-15T01:48:51.764Z,86.99
2023-11-15T01:51:41.159Z,87.44
2023-11-15T01:54:32.161Z,87.30
2023-11-15T01:57:23.046Z,86.85
2023-11-15T02:00:15.246Z,86.58
2023-11-15T02:03:05.518Z,86.92
2023-11-15T02:05:55.898Z,86.73
2023-11-15T02:08:45.484Z,86.11
2023-11-15T02:11:34.936Z,86.99
2023-11-15T02:14:25.874Z,86.49
2023-11-15T02:17:15.594Z,86.57
2023-11-15T02:20:09.905Z,86.78
2023-11-15T02:23:01.936Z,86.74
2023-11-15T02:25:53.372Z,86.48
2023-11-15T02:28:42.712Z,86.35
2023-11-15T02:31:33.265Z,86.74
2023-11-15T02:34:23.204Z,86.36
2023-11-15T02:37:12.645Z,86.38
2023-11-15T02:40:05.834Z,86.08
2023-11-15T02:42:57.694Z,86.45
2023-11-15T02:45:47.468Z,86.08
2023-11-15T02:48:36.918Z,85.93
2023-11-15T02:51:26.836Z,86.03
2023-11-15T02:54:16.807Z,86.14
2023-11-15T02:57:06.813Z,85.99
2023-11-15T02:59:57.584Z,85.60
2023-11-15T03:02:47.359Z,85.89
2023-11-15T03:05:38.170Z,85.82
2023-11-15T03:08:27.847Z,85.83
2023-11-15T03:11:17.462Z,85.34
2023-11-15T03:14:07.016Z,85.49
2023-11-15T03:16:58.111Z,85.31
2023-11-15T03:19:47.714Z,85.03
2023-11-15T03:22:37.189Z,84.92
2023-11-15T03:25:26.573Z,84.67
2023-11-15T03:28:15.851Z,84.51
2023-11-15T03:31:07.248Z,84.56
2023-11-15T03:33:58.113Z,84.51
2023-11-15T03:36:48.195Z,84.58
2023-11-15T03:39:39.037Z,84.54
2023-11-15T03:42:28.372Z,84.59
2023-11-15T03:45:18.415Z,84.30
2023-11-15T03:48:08.434Z,84.19
2023-11-15T03:50:59.924Z,84.35
2023-11-15T03:53:49.234Z,84.04
2023-11-15T03:56:38.536Z,83.75
2023-11-15T03:59:27.942Z,83.82
2023-11-15T04:02:17.968Z,83.54
2023-11-15T04:05:10.959Z,83.39
2023-11-15T04:08:01.675Z,83.21
2023-11-15T04:10:51.436Z,82.91
2023-11-15T04:13:40.984Z,82.63
2023-11-15T04:16:30.368Z,82.71
2023-11-15T04:19:22.471Z,82.37
2023-11-15T04:22:14.168Z,82.46
2023-11-15T04:25:06.275Z,82.80
2023-11-15T04:27:55.978Z,82.64
2023-11-15T04:30:45.379Z,82.63
2023-11-15T04:33:34.833Z,82.60
2023-11-15T04:36:24.620Z,82.68
2023-11-15T04:39:14.613Z,82.83
2023-11-15T04:42:05.774Z,82.79
2023-11-15T04:44:55.205Z,82.79
2023-11-15T04:47:44.584Z,82.42
2023-11-15T04:50:34.136Z,82.58
2023-11-15T04:53:23.457Z,82.60
2023-11-15T04:56:12.849Z,82.22
2023-11-15T04:59:03.734Z,82.36
2023-11-15T05:01:52.994Z,81.95
2023-11-15T05:04:42.360Z,82.09
2023-11-15T05:07:33.964Z,81.94
2023-11-15T05:10:23.488Z,82.44
2023-11-15T05:13:12.838Z,82.51
2023-11-15T05:16:05.103Z,82.67
2023-11-15T05:18:54.450Z,82.75
2023-11-15T05:21:44.745Z,83.30
2023-11-15T05:24:34.339Z,83.29
2023-11-15T05:27:24.059Z,83.45
2023-11-15T05:30:14.537Z,83.71
2023-11-15T05:33:05.624Z,83.90
2023-11-15T05:35:55.008Z,83.99
2023-11-15T05:38:44.381Z,83.91
2023-11-15T05:41:33.808Z,84.06
2023-11-15T05:44:23.168Z,83.29
2023-11-15T05:47:12.584Z,83.57
2023-11-15T05:50:04.110Z,83.48
2023-11-15T05:52:53.973Z,83.00
2023-11-15T05:55:43.645Z,82.89
2023-11-15T05:58:32.943Z,83.13
2023-11-15T06:01:22.477Z,83.07
2023-11-15T06:04:12.006Z,82.75
2023-11-15T06:07:02.878Z,82.83
2023-11-15T06:09:53.166Z,83.31
2023-11-15T06:12:42.828Z,83.07
2023-11-15T06:15:32.187Z,83.36
2023-11-15T06:18:23.161Z,83.31
2023-11-15T06:21:13.325Z,83.31
2023-11-15T06:24:05.870Z,82.96
2023-11-15T06:26:55.176Z,82.99
2023-11-15T06:29:48.996Z,82.86
2023-11-15T06:32:38.503Z,83.36
2023-11-15T06:35:28.059Z,82.73
2023-11-15T06:38:17.491Z,83.10
2023-11-15T06:41:09.933Z,83.10
2023-11-15T06:43:59.278Z,83.24
2023-11-15T06:46:48.732Z,83.46
2023-11-15T06:49:38.420Z,83.09
2023-11-15T06:52:27.770Z,83.31
2023-11-15T06:55:17.187Z,83.49
2023-11-15T06:58:08.623Z,83.37
2023-11-15T07:00:58.066Z,83.22
2023-11-15T07:03:48.163Z,82.89
2023-11-15T07:06:37.643Z,83.46
2023-11-15T07:09:28.513Z,83.85
2023-11-15T07:12:18.521Z,83.89
2023-11-15T07:15:15.799Z,83.74
2023-11-15T07:18:05.482Z,83.63
2023-11-15T07:20:54.968Z,83.72
2023-11-15T07:23:44.455Z,83.91
2023-11-15T07:26:36.668Z,83.36
2023-11-15T07:29:27.652Z,83.32
2023-11-15T07:32:18.773Z,83.49
2023-11-15T07:35:10.189Z,83.68
2023-11-15T07:37:59.582Z,83.73
2023-11-15T07:40:50.101Z,83.70
2023-11-15T07:43:39.522Z,83.82
2023-11-15T07:46:31.755Z,83.79
2023-11-15T07:49:25.104Z,84.11
2023-11-15T07:52:14.472Z,84.16
2023-11-15T07:55:04.498Z,84.22
2023-11-15T07:57:53.862Z,84.31
2023-11-15T08:00:43.330Z,84.65
2023-11-15T08:03:32.916Z,84.67
2023-11-15T08:06:23.736Z,84.66
2023-11-15T08:09:26.084Z,84.70
2023-11-15T08:12:16.294Z,85.03
2023-11-15T08:15:06.702Z,84.78
2023-11-15T08:17:57.641Z,84.71
2023-11-15T08:20:48.199Z,84.87
2023-11-15T08:23:39.635Z,85.09
2023-11-15T08:26:29.058Z,84.96
2023-11-15T08:29:18.786Z,84.74
2023-11-15T08:32:08.573Z,84.59
2023-11-15T08:34:58.135Z,84.46
2023-11-15T08:37:47.449Z,84.49
2023-11-15T08:40:39.270Z,84.61
2023-11-15T08:43:29.054Z,84.39
2023-11-15T08:46:18.719Z,84.39
2023-11-15T08:49:08.310Z,84.47
2023-11-15T08:51:58.854Z,84.70
2023-11-15T08:54:49.425Z,84.36
2023-11-15T08:57:40.210Z,84.07
2023-11-15T09:00:32.820Z,83.54
2023-11-15T09:03:22.485Z,83.90
2023-11-15T09:06:13.228Z,83.70
2023-11-15T09:09:05.390Z,83.62
2023-11-15T09:11:58.365Z,83.93
2023-11-15T09:14:50.375Z,83.44
2023-11-15T09:17:47.980Z,83.23
2023-11-15T09:20:37.762Z,83.34
2023-11-15T09:23:30.709Z,82.95
2023-11-15T09:26:22.074Z,82.95
2023-11-15T09:29:11.417Z,82.99
2023-11-15T09:32:03.115Z,82.80
2023-11-15T09:34:53.316Z,82.79
2023-11-15T09:37:43.851Z,82.53
2023-11-15T09:40:33.532Z,82.25
2023-11-15T09:43:22.912Z,82.41
2023-11-15T09:46:16.690Z,82.63
2023-11-15T09:49:08.925Z,82.29
2023-11-15T09:52:00.479Z,81.88
2023-11-15T09:54:53.309Z,81.61
2023-11-15T09:57:45.020Z,81.86
2023-11-15T10:00:34.441Z,81.68
2023-11-15T10:03:24.081Z,81.67
2023-11-15T10:06:14.820Z,81.88
2023-11-15T10:09:04.233Z,81.88
2023-11-15T10:11:53.544Z,81.81
2023-11-15T10:14:54.391Z,81.52
2023-11-15T10:17:45.261Z,81.56
2023-11-15T10:20:35.494Z,81.52
2023-11-15T10:23:33.641Z,81.17
2023-11-15T10:26:40.210Z,80.72
2023-11-15T10:29:29.592Z,80.47
2023-11-15T10:32:24.393Z,80.17
2023-11-15T10:35:28.869Z,80.42
2023-11-15T10:38:22.786Z,79.68
2023-11-15T10:41:20.503Z,79.72
2023-11-15T10:44:13.959Z,78.61
2023-11-15T10:47:07.198Z,78.77
2023-11-15T10:50:03.437Z,78.14
2023-11-15T10:52:52.929Z,77.97
2023-11-15T10:55:43.199Z,76.60
2023-11-15T10:58:35.321Z,76.46
2023-11-15T11:01:27.401Z,75.68
2023-11-15T11:04:17.583Z,75.16
2023-11-15T11:07:16.528Z,74.49
2023-11-15T11:10:15.991Z,73.81
2023-11-15T11:13:19.633Z,73.92
2023-11-15T11:16:36.268Z,72.09
2023-11-15T11:19:27.400Z,70.26
2023-11-15T11:22:19.157Z,67.17
2023-11-15T11:25:24.267Z,61.53
2023-11-15T11:28:15.247Z,60.56
2023-11-15T11:31:19.559Z,58.23
2023-11-15T11:34:13.852Z,57.06
2023-11-15T11:37:03.472Z,53.59
2023-11-15T11:39:57.232Z,52.89
2023-11-15T11:42:49.358Z,52.20
2023-11-15T11:45:39.487Z,50.64
2023-11-15T11:48:29.968Z,51.37
2023-11-15T11:51:20.797Z,49.61
2023-11-15T11:54:25.002Z,48.64
2023-11-15T11:57:22.900Z,48.67
2023-11-15T12:00:18.943Z,49.26
2023-11-15T12:03:18.177Z,46.86
2023-11-15T12:06:11.084Z,47.09
2023-11-15T12:09:02.042Z,45.16
2023-11-15T12:11:51.613Z,45.46
2023-11-15T12:14:52.930Z,44.84
2023-11-15T12:17:45.463Z,45.17
2023-11-15T12:20:37.714Z,45.22
2023-11-15T12:23:28.057Z,45.74
2023-11-15T12:26:18.782Z,44.66
2023-11-15T12:29:22.356Z,44.60
2023-11-15T12:32:12.089Z,45.48
2023-11-15T12:35:01.574Z,45.39
2023-11-15T12:37:54.168Z,45.66
2023-11-15T12:40:45.805Z,45.92
2023-11-15T12:43:36.798Z,46.27
2023-11-15T12:46:26.283Z,46.83
2023-11-15T12:49:16.916Z,47.06
2023-11-15T12:52:06.950Z,47.06
2023-11-15T12:54:56.781Z,47.69
2023-11-15T12:57:55.117Z,48.04
2023-11-15T13:01:02.406Z,47.65
2023-11-15T13:03:58.277Z,47.71
2023-11-15T13:06:47.805Z,47.56
2023-11-15T13:09:37.137Z,47.27
2023-11-15T13:12:27.855Z,47.68
2023-11-15T13:15:19.528Z,47.57
2023-11-15T13:18:12.425Z,48.05
2023-11-15T13:21:01.836Z,48.28
2023-11-15T13:23:53.515Z,47.95
2023-11-15T13:26:44.678Z,49.01
2023-11-15T13:29:34.182Z,49.33
2023-11-15T13:32:23.905Z,49.45
2023-11-15T13:35:14.737Z,49.75
2023-11-15T13:38:04.444Z,50.45
2023-11-15T13:40:54.238Z,51.15
2023-11-15T13:43:45.910Z,51.11
2023-11-15T13:46:37.029Z,51.31
2023-11-15T13:49:26.491Z,50.99
2023-11-15T13:52:17.809Z,50.72
2023-11-15T13:55:09.679Z,50.41
2023-11-15T13:57:59.099Z,49.66
2023-11-15T14:00:53.328Z,49.24
2023-11-15T14:03:42.791Z,49.40
2023-11-15T14:06:32.642Z,50.18
2023-11-15T14:09:23.718Z,50.38
2023-11-15T14:12:13.602Z,50.95
2023-11-15T14:15:03.161Z,51.66
2023-11-15T14:17:52.643Z,51.71
2023-11-15T14:20:42.070Z,52.29
2023-11-15T14:23:31.402Z,52.24
2023-11-15T14:26:22.289Z,52.37
2023-11-15T14:29:11.688Z,52.62
2023-11-15T14:32:02.253Z,52.62
2023-11-15T14:34:51.522Z,53.32
2023-11-15T14:37:41.800Z,53.45
2023-11-15T14:40:31.942Z,53.84
2023-11-15T14:43:22.878Z,53.84
2023-11-15T14:46:12.265Z,54.31
2023-11-15T14:49:01.793Z,54.70
2023-11-15T14:51:59.994Z,55.48
2023-11-15T14:54:50.456Z,55.65
2023-11-15T14:57:40.256Z,56.32
2023-11-15T15:00:31.055Z,56.48
2023-11-15T15:03:23.235Z,57.05
2023-11-15T15:06:13.940Z,57.38
2023-11-15T15:09:04.801Z,57.22
2023-11-15T15:11:57.420Z,57.64
2023-11-15T15:14:47.917Z,57.91
2023-11-15T15:17:39.220Z,58.04
2023-11-15T15:20:29.033Z,58.25
2023-11-15T15:23:18.502Z,58.52
2023-11-15T15:26:08.648Z,58.74
2023-11-15T15:28:58.117Z,58.48
2023-11-15T15:31:47.554Z,58.58
2023-11-15T15:34:38.685Z,59.05
2023-11-15T15:37:29.465Z,58.73
2023-11-15T15:40:19.633Z,58.44
2023-11-15T15:43:09.242Z,58.54
2023-11-15T15:45:58.847Z,58.47
2023-11-15T15:48:52.408Z,58.46
2023-11-15T15:51:43.322Z,58.96
2023-11-15T15:54:32.772Z,58.80
2023-11-15T15:57:22.406Z,59.31
2023-11-15T16:00:17.384Z,59.52
2023-11-15T16:03:07.430Z,59.67
2023-11-15T16:05:57.367Z,60.13
2023-11-15T16:08:48.474Z,59.93
2023-11-15T16:11:37.819Z,60.64
2023-11-15T16:14:27.301Z,61.00
2023-11-15T16:17:17.039Z,60.93
2023-11-15T16:20:08.832Z,61.46
2023-11-15T16:22:58.819Z,61.90
2023-11-15T16:25:50.089Z,62.38
2023-11-15T16:28:39.709Z,62.82
2023-11-15T16:31:29.117Z,63.16
2023-11-15T16:34:18.679Z,63.28
2023-11-15T16:37:09.958Z,64.34
2023-11-15T16:39:59.989Z,64.35
2023-11-15T16:42:52.424Z,64.71
2023-11-15T16:45:42.428Z,64.45
2023-11-15T16:48:32.882Z,64.92
2023-11-15T16:51:22.777Z,64.85
2023-11-15T16:54:14.482Z,64.83
2023-11-15T16:57:06.433Z,65.03
2023-11-15T16:59:58.714Z,65.09
2023-11-15T17:02:50.839Z,66.36
2023-11-15T17:05:40.610Z,65.91
2023-11-15T17:08:29.956Z,66.21
2023-11-15T17:11:19.701Z,66.08
2023-11-15T17:14:09.254Z,66.18
2023-11-15T17:17:01.250Z,65.95
2023-11-15T17:19:50.594Z,65.98
2023-11-15T17:22:39.916Z,65.93
2023-11-15T17:25:29.282Z,66.14
2023-11-15T17:28:18.648Z,66.17
2023-11-15T17:31:09.265Z,66.17
2023-11-15T17:34:00.101Z,66.43
2023-11-15T17:36:50.063Z,66.63
2023-11-15T17:39:40.829Z,66.95
2023-11-15T17:42:30.283Z,66.91
2023-11-15T17:45:19.880Z,67.22
2023-11-15T17:48:10.362Z,67.60
2023-11-15T17:51:01.846Z,67.79
2023-11-15T17:53:51.307Z,67.84
2023-11-15T17:56:40.630Z,68.51
2023-11-15T17:59:30.086Z,68.13
2023-11-15T18:02:19.560Z,67.96
2023-11-15T18:05:13.588Z,68.44
2023-11-15T18:08:04.911Z,68.29
2023-11-15T18:10:54.382Z,68.50
2023-11-15T18:13:43.698Z,68.63
2023-11-15T18:16:33.113Z,68.65
2023-11-15T18:19:23.077Z,68.50
2023-11-15T18:22:12.505Z,68.95
2023-11-15T18:25:05.466Z,69.17
2023-11-15T18:27:54.932Z,69.12
2023-11-15T18:30:46.395Z,68.84
2023-11-15T18:33:37.401Z,68.93
2023-11-15T18:36:26.937Z,68.77
2023-11-15T18:39:18.051Z,68.83
2023-11-15T18:42:15.203Z,68.82
2023-11-15T18:45:06.229Z,68.76
2023-11-15T18:47:55.672Z,68.70
2023-11-15T18:50:45.420Z,69.02
2023-11-15T18:53:34.855Z,68.99
2023-11-15T18:56:24.929Z,69.30
2023-11-15T18:59:15.697Z,69.38
2023-11-15T19:02:05.696Z,69.71
2023-11-15T19:04:55.427Z,69.83
2023-11-15T19:07:45.616Z,69.57
2023-11-15T19:10:34.935Z,70.31
2023-11-15T19:13:26.395Z,70.42
2023-11-15T19:16:20.057Z,70.57
2023-11-15T19:19:10.766Z,70.82
2023-11-15T19:22:00.490Z,71.03
2023-11-15T19:24:50.309Z,71.19
2023-11-15T19:27:40.348Z,71.51
2023-11-15T19:30:29.782Z,71.84
2023-11-15T19:33:20.885Z,72.41
2023-11-15T19:36:12.182Z,72.26
2023-11-15T19:39:01.738Z,72.13
2023-11-15T19:41:54.495Z,72.25
2023-11-15T19:44:44.349Z,72.32
2023-11-15T19:47:34.796Z,72.45
2023-11-15T19:50:25.609Z,72.32
2023-11-15T19:53:14.993Z,72.35
2023-11-15T19:56:04.914Z,72.40
2023-11-15T19:58:54.248Z,72.64
2023-11-15T20:01:43.924Z,72.80
2023-11-15T20:04:33.380Z,73.25
2023-11-15T20:07:26.972Z,73.13
2023-11-15T20:10:16.601Z,73.40
2023-11-15T20:13:06.807Z,73.43
2023-11-15T20:15:56.449Z,73.48
2023-11-15T20:18:45.893Z,73.68
2023-11-15T20:21:37.235Z,73.51
2023-11-15T20:24:28.123Z,73.84
2023-11-15T20:27:18.544Z,74.10
2023-11-15T20:30:09.739Z,74.27
2023-11-15T20:32:59.173Z,74.31
2023-11-15T20:35:48.526Z,74.16
2023-11-15T20:38:37.843Z,74.30
2023-11-15T20:41:30.360Z,74.13
2023-11-15T20:44:19.817Z,74.24
2023-11-15T20:47:09.519Z,73.86
2023-11-15T20:49:59.015Z,74.28
2023-11-15T20:52:49.821Z,74.30
2023-11-15T20:55:39.526Z,74.45
2023-11-15T20:58:30.666Z,74.52
2023-11-15T21:01:20.170Z,74.64
2023-11-15T21:04:10.300Z,74.39
2023-11-15T21:07:00.222Z,74.53
2023-11-15T21:09:49.726Z,74.48
2023-11-15T21:12:40.187Z,74.79
2023-11-15T21:15:31.523Z,75.24
2023-11-15T21:18:20.987Z,75.40
2023-11-15T21:21:15.571Z,75.51
2023-11-15T21:24:09.179Z,75.67
2023-11-15T21:26:59.631Z,75.78
2023-11-15T21:29:49.267Z,76.49
2023-11-15T21:32:41.520Z,76.40
2023-11-15T21:35:30.961Z,77.33
2023-11-15T21:38:20.428Z,77.03
2023-11-15T21:41:09.790Z,76.92
2023-11-15T21:44:00.687Z,77.39
2023-11-15T21:46:51.967Z,77.86
2023-11-15T21:49:42.797Z,77.69
2023-11-15T21:52:32.442Z,77.60
2023-11-15T21:55:21.861Z,77.69
2023-11-15T21:58:13.517Z,77.41
2023-11-15T22:01:03.152Z,77.63
2023-11-15T22:03:52.713Z,78.27
2023-11-15T22:06:52.531Z,78.06
2023-11-15T22:09:48.944Z,78.43
2023-11-15T22:12:38.334Z,78.15
2023-11-15T22:15:29.576Z,78.13
2023-11-15T22:18:19.020Z,77.92
2023-11-15T22:21:09.466Z,78.04
2023-11-15T22:24:00.264Z,78.56
2023-11-15T22:26:49.805Z,78.48
2023-11-15T22:29:39.178Z,78.61
2023-11-15T22:32:29.150Z,78.42
2023-11-15T22:35:18.531Z,78.49
2023-11-15T22:38:08.776Z,78.71
2023-11-15T22:40:59.626Z,78.61
2023-11-15T22:43:49.827Z,78.70
2023-11-15T22:46:39.360Z,78.74
2023-11-15T22:49:28.793Z,78.58
2023-11-15T22:52:18.217Z,78.65
2023-11-15T22:55:08.955Z,78.42
2023-11-15T22:58:00.697Z,78.73
2023-11-15T23:00:52.386Z,78.86
2023-11-15T23:03:42.953Z,78.79
2023-11-15T23:06:32.452Z,78.82
2023-11-15T23:09:22.065Z,78.93
2023-11-15T23:12:12.836Z,78.99
2023-11-15T23:15:03.660Z,79.17
2023-11-15T23:17:55.393Z,79.34
2023-11-15T23:20:48.371Z,79.19
2023-11-15T23:23:37.835Z,79.53
2023-11-15T23:26:29.016Z,79.35
2023-11-15T23:29:18.471Z,79.61
2023-11-15T23:32:09.741Z,79.98
2023-11-15T23:34:59.147Z,80.49
2023-11-15T23:37:49.335Z,80.45
2023-11-15T23:40:38.733Z,80.21
2023-11-15T23:43:29.740Z,80.33
2023-11-15T23:46:19.315Z,80.16
2023-11-15T23:49:10.088Z,80.65
2023-11-15T23:51:59.544Z,80.60
2023-11-15T23:54:48.818Z,80.77
2023-11-15T23:57:38.232Z,80.88
